Time;durP1;ratioP1;P1;durP2;ratioP2;P2;SDS_P1;SDS_P2;PMS_P1;PMS_P2;Temp;Humidity;BMP_temperature;BMP_pressure;BME280_temperature;BME280_humidity;BME280_pressure;Samples;Min_cycle;Max_cycle;Signal;HPM_P1;HPM_P2
2022/05/18 00:00:51;;;;;;;2.80;2.20;;;20.40;90.00;;;;;;10534690;28;20143;-57
2022/05/18 00:05:52;;;;;;;3.00;2.10;;;20.30;90.00;;;;;;10518991;28;20028;-57
2022/05/18 00:10:53;;;;;;;4.35;2.83;;;20.30;90.00;;;;;;10536697;28;20036;-61
2022/05/18 00:15:54;;;;;;;3.20;2.50;;;20.30;90.00;;;;;;10536845;28;20024;-57
2022/05/18 00:20:55;;;;;;;3.78;2.45;;;20.30;90.00;;;;;;10536859;28;20036;-60
2022/05/18 00:25:56;;;;;;;3.50;2.45;;;20.20;90.00;;;;;;10536935;28;20044;-57
2022/05/18 00:30:57;;;;;;;5.55;2.60;;;20.20;90.00;;;;;;10536592;28;20602;-65
2022/05/18 00:35:58;;;;;;;4.93;2.40;;;20.20;90.00;;;;;;10536225;28;20067;-70
2022/05/18 00:40:59;;;;;;;3.22;2.38;;;20.10;90.20;;;;;;10536337;28;20048;-57
2022/05/18 00:46:04;;;;;;;13.90;2.50;;;20.10;90.00;;;;;;10536030;28;20392;-59
2022/05/18 00:51:21;;;;;;;5.32;3.08;;;20.10;90.00;;;;;;10535873;28;20135;-56
2022/05/18 00:56:45;;;;;;;4.38;2.42;;;20.00;90.00;;;;;;10536251;28;20024;-57
2022/05/18 01:01:48;;;;;;;3.70;2.30;;;20.00;90.00;;;;;;10543794;28;20048;-65
2022/05/18 01:07:07;;;;;;;3.42;2.42;;;20.00;90.00;;;;;;10544224;28;20043;-56
2022/05/18 01:12:12;;;;;;;4.95;2.58;;;20.00;89.90;;;;;;10543725;28;20401;-61
2022/05/18 01:17:17;;;;;;;5.72;2.47;;;19.90;89.90;;;;;;10543677;28;20020;-56
2022/05/18 01:22:33;;;;;;;3.80;2.42;;;19.90;89.90;;;;;;10543247;28;20162;-64
2022/05/18 01:27:34;;;;;;;4.95;2.47;;;19.90;89.80;;;;;;10525239;28;20108;-56
2022/05/18 01:32:41;;;;;;;4.40;2.63;;;19.80;89.90;;;;;;10542854;28;20048;-57
2022/05/18 01:37:42;;;;;;;3.63;2.50;;;19.80;89.90;;;;;;10542914;28;20047;-57
2022/05/18 01:42:52;;;;;;;3.42;2.53;;;19.80;89.90;;;;;;10542399;28;20519;-56
2022/05/18 01:47:53;;;;;;;4.97;2.47;;;19.80;89.80;;;;;;10542684;28;20028;-57
2022/05/18 01:52:53;;;;;;;4.80;2.63;;;19.70;89.80;;;;;;10541987;28;20359;-56
2022/05/18 01:57:54;;;;;;;4.47;2.50;;;19.70;89.80;;;;;;10542089;28;20342;-71
2022/05/18 02:02:55;;;;;;;4.85;2.78;;;19.70;89.80;;;;;;10541614;28;20206;-57
2022/05/18 02:07:57;;;;;;;6.07;2.60;;;19.70;89.80;;;;;;10541331;28;20484;-61
2022/05/18 02:12:57;;;;;;;3.88;2.78;;;19.60;89.80;;;;;;10541453;28;20486;-58
2022/05/18 02:17:58;;;;;;;4.25;2.70;;;19.60;89.80;;;;;;10540870;28;20035;-67
2022/05/18 02:22:59;;;;;;;5.93;2.63;;;19.60;89.80;;;;;;10541078;28;20055;-57
2022/05/18 02:28:00;;;;;;;4.60;2.75;;;19.50;89.80;;;;;;10540835;28;20126;-56
2022/05/18 02:33:01;;;;;;;3.10;2.72;;;19.50;89.80;;;;;;10540578;28;20104;-71
2022/05/18 02:38:02;;;;;;;3.92;2.80;;;19.50;89.80;;;;;;10540382;28;20075;-71
2022/05/18 02:43:03;;;;;;;4.63;3.00;;;19.50;89.80;;;;;;10540252;28;20036;-69
2022/05/18 02:48:03;;;;;;;3.58;2.70;;;19.40;89.80;;;;;;10540152;28;20032;-72
2022/05/18 02:53:04;;;;;;;5.22;3.00;;;19.40;89.80;;;;;;10539661;28;20044;-60
2022/05/18 02:58:06;;;;;;;6.80;2.72;;;19.40;89.80;;;;;;10538334;28;20404;-62
2022/05/18 03:03:07;;;;;;;5.55;2.80;;;19.40;89.80;;;;;;10536467;28;20528;-57
2022/05/18 03:08:08;;;;;;;4.78;2.92;;;19.30;89.80;;;;;;10539262;28;20036;-62
2022/05/18 03:13:08;;;;;;;6.38;3.13;;;19.30;89.80;;;;;;10539246;28;20048;-61
2022/05/18 03:18:09;;;;;;;5.75;3.40;;;19.30;89.80;;;;;;10538948;28;20123;-69
2022/05/18 03:28:29;;;;;;;5.03;2.90;;;19.20;89.80;;;;;;10538735;28;20048;-65
2022/05/18 03:33:31;;;;;;;4.10;2.90;;;19.20;89.90;;;;;;10538441;28;20048;-68
2022/05/18 03:38:32;;;;;;;4.63;2.97;;;19.20;89.90;;;;;;10538117;28;20092;-64
2022/05/18 03:43:32;;;;;;;4.30;2.92;;;19.10;89.80;;;;;;10537895;28;20054;-56
2022/05/18 03:48:34;;;;;;;6.05;3.20;;;19.10;89.90;;;;;;10537614;28;20488;-61
2022/05/18 03:53:35;;;;;;;6.45;3.20;;;19.10;89.90;;;;;;10537672;28;20528;-61
2022/05/18 03:58:36;;;;;;;4.20;2.97;;;19.10;89.80;;;;;;10537358;28;20041;-70
2022/05/18 04:03:39;;;;;;;4.60;2.85;;;19.10;89.90;;;;;;10537247;28;20539;-60
2022/05/18 04:08:40;;;;;;;5.40;3.40;;;19.00;89.80;;;;;;10537169;28;20028;-64
2022/05/18 04:13:41;;;;;;;4.95;3.10;;;19.00;89.80;;;;;;10537147;28;20036;-67
2022/05/18 04:18:42;;;;;;;6.22;3.05;;;19.00;89.80;;;;;;10536678;28;20047;-57
2022/05/18 04:23:42;;;;;;;4.53;3.00;;;19.00;89.80;;;;;;10536541;28;20033;-71
2022/05/18 04:28:43;;;;;;;4.55;3.28;;;19.00;89.70;;;;;;10536609;28;20452;-69
2022/05/18 04:33:44;;;;;;;4.20;3.03;;;19.00;89.80;;;;;;10535394;28;20040;-71
2022/05/18 04:38:45;;;;;;;6.03;3.38;;;19.00;90.10;;;;;;10536500;28;20404;-65
2022/05/18 04:43:45;;;;;;;4.80;3.35;;;19.00;89.80;;;;;;10536001;28;20123;-70
2022/05/18 04:48:46;;;;;;;6.60;3.60;;;19.00;89.70;;;;;;10536325;28;20477;-72
2022/05/18 04:53:47;;;;;;;7.07;3.47;;;19.00;89.70;;;;;;10535897;28;20054;-61
2022/05/18 04:58:48;;;;;;;5.13;3.45;;;19.00;89.80;;;;;;10533467;28;20048;-74
2022/05/18 05:03:48;;;;;;;6.43;3.97;;;18.90;89.90;;;;;;10535979;28;20040;-74
2022/05/18 05:08:49;;;;;;;6.18;3.47;;;19.00;90.00;;;;;;10535574;28;20115;-71
2022/05/18 05:13:49;;;;;;;7.32;4.10;;;18.90;90.00;;;;;;10535318;28;20056;-73
2022/05/18 05:18:50;;;;;;;5.43;3.80;;;18.90;90.00;;;;;;10535605;28;20063;-73
2022/05/18 05:23:51;;;;;;;6.20;3.67;;;18.90;90.10;;;;;;10535341;28;20036;-67
2022/05/18 05:28:52;;;;;;;5.25;3.38;;;18.90;90.10;;;;;;10535480;28;20058;-57
2022/05/18 05:33:52;;;;;;;4.35;3.25;;;18.90;90.10;;;;;;10535100;28;20093;-67
2022/05/18 05:38:53;;;;;;;6.15;4.00;;;18.90;90.00;;;;;;10535084;28;20124;-74
2022/05/18 05:43:55;;;;;;;5.78;3.58;;;18.90;90.00;;;;;;10537429;28;20032;-56
2022/05/18 05:48:56;;;;;;;6.15;3.95;;;19.00;90.10;;;;;;10542777;28;20020;-76
2022/05/18 05:53:57;;;;;;;7.20;3.60;;;19.00;90.10;;;;;;10542304;28;20048;-65
2022/05/18 05:58:58;;;;;;;4.20;3.08;;;19.00;90.00;;;;;;10541944;28;20048;-65
2022/05/18 06:03:59;;;;;;;5.43;3.42;;;19.00;90.10;;;;;;10541839;28;20047;-59
2022/05/18 06:08:59;;;;;;;4.75;3.42;;;19.00;90.00;;;;;;10542048;28;20036;-64
2022/05/18 06:14:01;;;;;;;5.95;4.10;;;19.00;90.00;;;;;;10541674;28;20052;-59
2022/05/18 06:19:02;;;;;;;5.38;3.85;;;19.00;90.10;;;;;;10541326;28;20024;-59
2022/05/18 06:24:03;;;;;;;8.05;4.30;;;19.00;90.00;;;;;;10541403;28;20025;-59
2022/05/18 06:29:04;;;;;;;5.00;3.22;;;19.00;90.00;;;;;;10540926;28;20051;-60
2022/05/18 06:34:05;;;;;;;5.78;4.30;;;19.10;90.00;;;;;;10541194;28;20044;-64
2022/05/18 06:39:06;;;;;;;7.80;4.22;;;19.10;90.10;;;;;;10540364;28;20032;-57
2022/05/18 06:44:07;;;;;;;8.32;4.18;;;19.10;90.10;;;;;;10539138;28;20040;-56
2022/05/18 06:49:10;;;;;;;5.97;4.00;;;19.10;90.10;;;;;;10538505;28;20089;-60
2022/05/18 06:54:12;;;;;;;5.30;3.40;;;19.20;90.10;;;;;;10538080;28;20097;-57
2022/05/18 06:59:14;;;;;;;6.03;3.80;;;19.20;90.10;;;;;;10538014;28;20040;-62
2022/05/18 07:04:15;;;;;;;5.53;4.10;;;19.30;90.10;;;;;;10538506;28;20056;-60
2022/05/18 07:09:19;;;;;;;9.07;4.63;;;19.30;90.10;;;;;;10538083;28;20488;-69
2022/05/18 07:14:22;;;;;;;7.80;4.50;;;19.40;90.10;;;;;;10537841;28;20051;-66
2022/05/18 07:19:24;;;;;;;7.93;4.10;;;19.40;90.00;;;;;;10537602;28;20132;-59
2022/05/18 07:24:25;;;;;;;6.65;4.40;;;19.50;90.00;;;;;;10537346;28;20040;-59
2022/05/18 07:29:26;;;;;;;6.97;4.20;;;19.60;90.00;;;;;;10537186;28;20040;-66
2022/05/18 07:34:26;;;;;;;6.07;4.53;;;19.60;89.90;;;;;;10537138;28;20044;-62
2022/05/18 07:39:28;;;;;;;6.05;4.43;;;19.70;89.90;;;;;;10536790;28;20036;-66
2022/05/18 07:44:29;;;;;;;5.50;4.13;;;19.70;89.90;;;;;;10536565;28;20067;-56
2022/05/18 07:49:38;;;;;;;6.38;4.70;;;19.70;90.00;;;;;;10536254;28;20048;-56
2022/05/18 07:54:38;;;;;;;6.50;4.50;;;19.80;90.20;;;;;;10536141;28;20035;-72
2022/05/18 07:59:39;;;;;;;6.15;4.65;;;19.90;90.10;;;;;;10535506;28;20466;-62
2022/05/18 08:04:40;;;;;;;6.97;4.25;;;20.00;90.10;;;;;;10535782;28;20028;-58
2022/05/18 08:15:05;;;;;;;6.75;4.20;;;20.00;90.10;;;;;;10535271;28;20127;-72
2022/05/18 08:15:07;;;;;;;6.35;4.22;;;20.00;90.10;;;;;;10534944;28;20550;-68
2022/05/18 08:20:08;;;;;;;5.70;4.00;;;20.10;90.10;;;;;;10536542;28;20120;-61
2022/05/18 08:25:10;;;;;;;5.72;4.35;;;20.20;90.20;;;;;;10536502;28;20058;-57
2022/05/18 08:30:14;;;;;;;7.25;5.20;;;20.20;90.20;;;;;;10536559;28;20040;-71
2022/05/18 08:35:15;;;;;;;6.65;4.30;;;20.30;90.20;;;;;;10536493;28;20105;-56
2022/05/18 08:40:40;;;;;;;7.70;5.30;;;20.30;90.20;;;;;;10534704;28;20451;-74
2022/05/18 08:45:46;;;;;;;7.68;4.95;;;20.30;90.30;;;;;;10534585;28;20042;-59
2022/05/18 08:50:48;;;;;;;9.02;4.70;;;20.40;90.30;;;;;;10534618;28;20060;-75
2022/05/18 08:56:08;;;;;;;6.85;4.70;;;20.50;90.20;;;;;;10534531;28;20033;-67
2022/05/18 09:01:23;;;;;;;9.27;4.50;;;20.50;90.50;;;;;;10534287;28;20066;-69
2022/05/18 09:06:33;;;;;;;8.25;4.63;;;20.60;90.50;;;;;;10534290;28;20093;-57
2022/05/18 09:11:34;;;;;;;8.38;4.80;;;20.60;90.20;;;;;;10533859;28;20131;-58
2022/05/18 09:16:49;;;;;;;8.57;4.85;;;20.70;90.00;;;;;;10534248;28;20123;-74
2022/05/18 09:22:07;;;;;;;15.63;8.65;;;20.70;90.00;;;;;;10542728;28;20040;-68
2022/05/18 09:27:45;;;;;;;17.33;9.73;;;21.10;90.40;;;;;;10543563;28;20122;-69
2022/05/18 09:33:02;;;;;;;19.42;10.85;;;21.40;89.70;;;;;;10543179;28;20048;-61
2022/05/18 09:38:08;;;;;;;20.70;10.45;;;21.70;89.30;;;;;;10542907;28;20047;-60
2022/05/18 09:43:21;;;;;;;19.27;11.50;;;21.90;88.80;;;;;;10542879;28;20100;-70
2022/05/18 09:48:36;;;;;;;19.02;12.05;;;22.10;88.10;;;;;;10542425;28;20525;-63
2022/05/18 09:53:41;;;;;;;19.15;11.90;;;22.20;88.00;;;;;;10542542;28;20072;-60
2022/05/18 09:58:46;;;;;;;20.08;12.27;;;22.40;87.70;;;;;;10542026;28;20062;-64
2022/05/18 10:09:42;;;;;;;25.45;11.82;;;22.70;87.50;;;;;;10499916;28;20029;-65
2022/05/18 10:14:47;;;;;;;23.40;13.45;;;22.90;87.40;;;;;;10499491;28;20045;-61
2022/05/18 10:19:58;;;;;;;21.23;13.05;;;23.00;87.20;;;;;;10499599;28;20041;-69
2022/05/18 10:25:08;;;;;;;24.95;14.60;;;23.10;87.40;;;;;;10499365;28;20048;-65
2022/05/18 10:30:32;;;;;;;24.85;14.25;;;23.20;87.80;;;;;;10497842;28;20025;-59
2022/05/18 10:35:40;;;;;;;20.42;12.40;;;23.30;87.20;;;;;;10498644;28;20072;-59
2022/05/18 10:40:41;;;;;;;23.83;13.98;;;23.40;87.30;;;;;;10498696;28;20044;-59
2022/05/18 10:45:43;;;;;;;23.13;14.75;;;23.60;86.70;;;;;;10498547;28;20044;-63
2022/05/18 10:50:45;;;;;;;21.45;14.73;;;23.60;86.70;;;;;;10498316;28;20045;-68
2022/05/18 10:55:55;;;;;;;25.75;14.63;;;23.70;86.70;;;;;;10530828;28;20076;-59
2022/05/18 11:00:59;;;;;;;28.60;16.50;;;23.70;86.60;;;;;;10516120;28;20140;-67
2022/05/18 11:06:20;;;;;;;20.95;14.77;;;23.70;86.60;;;;;;10539679;28;20042;-68
2022/05/18 11:11:34;;;;;;;23.20;15.57;;;23.80;86.70;;;;;;10539076;28;20051;-70
2022/05/18 11:16:50;;;;;;;27.17;16.20;;;23.90;86.50;;;;;;10539232;28;20059;-66
2022/05/18 11:21:53;;;;;;;23.77;15.10;;;24.10;86.20;;;;;;10538646;28;20484;-68
2022/05/18 11:27:19;;;;;;;22.02;13.85;;;24.20;86.00;;;;;;10538799;28;20407;-67
2022/05/18 11:32:35;;;;;;;20.98;12.43;;;24.20;85.60;;;;;;10538176;28;20050;-67
2022/05/18 11:38:05;;;;;;;22.75;13.90;;;24.30;85.90;;;;;;10538498;28;20541;-67
2022/05/18 11:49:04;;;;;;;18.15;12.35;;;24.70;85.30;;;;;;10524363;28;20389;-68
2022/05/18 11:54:19;;;;;;;18.45;11.48;;;24.70;84.80;;;;;;10537490;28;20048;-63
2022/05/18 11:59:51;;;;;;;17.20;10.88;;;24.70;85.20;;;;;;10537383;28;20059;-63
2022/05/18 12:05:24;;;;;;;19.55;10.65;;;24.70;85.30;;;;;;10537177;28;20036;-66
2022/05/18 12:10:47;;;;;;;16.10;9.80;;;25.10;84.90;;;;;;10536896;28;20043;-61
2022/05/18 12:16:00;;;;;;;13.77;9.40;;;25.10;84.50;;;;;;10536836;28;20032;-67
2022/05/18 12:21:05;;;;;;;16.35;10.32;;;25.20;84.10;;;;;;10518699;28;20031;-66
2022/05/18 12:26:06;;;;;;;13.85;9.00;;;25.10;84.70;;;;;;10536790;28;20377;-66
2022/05/18 12:31:08;;;;;;;14.45;9.57;;;25.20;84.80;;;;;;10536491;28;20076;-68
2022/05/18 12:36:24;;;;;;;18.83;11.02;;;25.10;84.70;;;;;;10536314;28;20493;-69
2022/05/18 12:41:31;;;;;;;20.27;10.05;;;25.10;84.20;;;;;;10536168;28;20039;-66
2022/05/18 12:46:44;;;;;;;20.92;10.02;;;25.00;84.90;;;;;;10536393;28;20181;-64
2022/05/18 12:51:53;;;;;;;14.65;8.95;;;25.10;84.90;;;;;;10535992;28;20416;-69
2022/05/18 12:57:06;;;;;;;19.23;9.50;;;25.00;85.00;;;;;;10543769;28;20112;-63
2022/05/18 13:02:19;;;;;;;19.40;11.13;;;25.00;84.30;;;;;;10544061;28;20539;-67
2022/05/18 13:07:31;;;;;;;20.63;11.73;;;25.10;84.10;;;;;;10544124;28;20107;-69
2022/05/18 13:12:47;;;;;;;20.17;11.57;;;25.10;84.20;;;;;;10543782;28;20116;-69
2022/05/18 13:18:01;;;;;;;19.30;11.07;;;25.10;83.80;;;;;;10544191;28;20032;-68
2022/05/18 13:23:05;;;;;;;16.42;9.95;;;25.20;83.70;;;;;;10542635;28;20036;-60
2022/05/18 13:28:09;;;;;;;16.30;10.90;;;25.30;83.60;;;;;;10543445;28;20089;-65
2022/05/18 13:33:11;;;;;;;20.75;10.95;;;25.20;83.60;;;;;;10543043;28;20044;-64
2022/05/18 13:38:21;;;;;;;20.20;9.93;;;25.10;83.50;;;;;;10543007;28;20103;-68
2022/05/18 13:43:22;;;;;;;19.70;9.77;;;25.10;83.70;;;;;;10542797;28;20044;-67
2022/05/18 13:48:25;;;;;;;15.35;8.30;;;25.10;83.20;;;;;;10542695;28;20069;-68
2022/05/18 13:53:37;;;;;;;14.00;7.75;;;25.10;82.80;;;;;;10542296;28;20048;-66
2022/05/18 13:58:42;;;;;;;10.90;6.80;;;25.10;81.70;;;;;;10542086;28;20066;-67
2022/05/18 14:03:44;;;;;;;15.75;6.55;;;24.90;82.20;;;;;;10541628;28;20060;-67
2022/05/18 14:08:49;;;;;;;11.65;6.30;;;24.80;82.80;;;;;;10541762;28;20500;-62
2022/05/18 14:13:52;;;;;;;12.70;7.28;;;24.80;82.30;;;;;;10542066;28;20040;-59
2022/05/18 14:18:55;;;;;;;16.15;8.57;;;24.80;82.60;;;;;;10541556;28;20059;-67
2022/05/18 14:24:02;;;;;;;12.35;7.40;;;24.70;83.10;;;;;;10541207;28;20028;-63
2022/05/18 14:29:07;;;;;;;15.82;8.05;;;24.60;83.00;;;;;;10523088;28;20028;-64
2022/05/18 14:34:10;;;;;;;17.10;9.55;;;24.60;83.10;;;;;;10540561;28;20040;-61
2022/05/18 14:39:29;;;;;;;17.52;9.23;;;24.70;83.20;;;;;;10540684;28;20046;-68
2022/05/18 14:44:48;;;;;;;17.67;10.52;;;24.70;82.30;;;;;;10540051;28;20036;-64
2022/05/18 14:49:54;;;;;;;21.00;11.43;;;24.70;82.70;;;;;;10521954;28;20073;-69
2022/05/18 14:54:55;;;;;;;23.15;13.45;;;24.40;84.20;;;;;;10540174;28;20397;-59
2022/05/18 15:00:01;;;;;;;25.25;13.23;;;24.10;84.20;;;;;;10539594;28;20052;-59
2022/05/18 15:05:05;;;;;;;23.60;13.13;;;24.00;84.80;;;;;;10539553;28;20028;-78
2022/05/18 15:10:40;;;;;;;23.95;13.95;;;23.90;85.00;;;;;;10539084;28;20028;-67
2022/05/18 15:15:50;;;;;;;21.48;12.98;;;23.80;84.80;;;;;;10538424;28;20389;-65
2022/05/18 15:20:56;;;;;;;21.75;12.48;;;23.80;85.20;;;;;;10538964;28;20040;-59
2022/05/18 15:26:00;;;;;;;22.00;12.48;;;23.80;84.90;;;;;;10538965;28;20040;-81
2022/05/18 15:31:08;;;;;;;21.27;12.65;;;23.80;84.90;;;;;;10538509;28;20032;-74
2022/05/18 15:36:09;;;;;;;20.33;11.70;;;23.80;84.70;;;;;;10538352;28;20039;-86
2022/05/18 15:41:10;;;;;;;21.23;11.48;;;23.70;84.70;;;;;;10538322;28;20538;-65
2022/05/18 15:46:18;;;;;;;19.20;10.82;;;23.60;84.80;;;;;;10538493;28;20028;-71
2022/05/18 15:51:20;;;;;;;21.75;10.45;;;23.60;84.40;;;;;;10537897;28;20471;-73
2022/05/18 15:56:24;;;;;;;19.70;10.95;;;23.70;84.40;;;;;;10537737;28;20032;-68
2022/05/18 16:01:25;;;;;;;19.20;10.10;;;23.60;84.20;;;;;;10537137;28;20119;-81
2022/05/18 16:06:30;;;;;;;16.92;9.90;;;23.50;84.40;;;;;;10537622;28;20051;-81
2022/05/18 16:11:35;;;;;;;16.83;7.82;;;23.50;84.10;;;;;;10537232;28;20044;-69
2022/05/18 16:16:35;;;;;;;20.23;10.13;;;23.30;84.40;;;;;;10537664;28;20036;-76
2022/05/18 16:21:38;;;;;;;20.33;10.07;;;23.20;84.40;;;;;;10537321;28;20404;-68
2022/05/18 16:26:39;;;;;;;18.08;10.10;;;23.00;84.70;;;;;;10537127;28;20035;-70
2022/05/18 16:31:40;;;;;;;17.15;9.23;;;23.00;85.10;;;;;;10536177;28;20044;-68
2022/05/18 16:36:40;;;;;;;19.27;10.75;;;23.10;85.10;;;;;;10536609;28;20032;-82
2022/05/18 16:41:43;;;;;;;18.38;10.50;;;23.00;85.20;;;;;;10517749;28;20137;-68
2022/05/18 16:46:46;;;;;;;16.58;10.38;;;23.00;85.20;;;;;;10535987;28;20034;-80
2022/05/18 16:51:49;;;;;;;15.07;10.27;;;23.10;85.30;;;;;;10535689;28;20054;-69
2022/05/18 16:56:50;;;;;;;18.90;9.40;;;23.10;85.20;;;;;;10535733;28;20036;-62
2022/05/18 17:01:51;;;;;;;13.70;8.43;;;23.10;85.10;;;;;;10535473;28;20052;-76
2022/05/18 17:06:52;;;;;;;17.38;9.10;;;23.00;85.50;;;;;;10535626;28;20055;-73
2022/05/18 17:11:55;;;;;;;14.38;8.05;;;23.00;85.30;;;;;;10535557;28;20041;-74
2022/05/18 17:17:02;;;;;;;9.50;5.80;;;22.90;85.50;;;;;;10535655;28;20410;-57
2022/05/18 17:22:03;;;;;;;9.80;6.15;;;22.90;85.80;;;;;;10535171;28;20039;-61
2022/05/18 17:27:16;;;;;;;9.15;4.78;;;23.00;85.60;;;;;;10535327;28;20573;-66
2022/05/18 17:32:25;;;;;;;9.13;4.35;;;23.00;85.50;;;;;;10535331;28;20044;-65
2022/05/18 17:37:25;;;;;;;7.55;4.05;;;23.10;85.40;;;;;;10535045;28;20036;-69
2022/05/18 17:42:26;;;;;;;7.63;3.78;;;23.10;85.50;;;;;;10541503;28;20043;-61
2022/05/18 17:47:27;;;;;;;5.80;3.33;;;23.10;85.50;;;;;;10542671;28;20432;-71
2022/05/18 17:52:29;;;;;;;7.60;4.75;;;23.20;85.50;;;;;;10542583;28;20046;-75
2022/05/18 17:57:29;;;;;;;13.82;6.57;;;23.20;85.60;;;;;;10543641;28;20392;-60
2022/05/18 18:02:37;;;;;;;15.05;7.28;;;23.10;85.30;;;;;;10542163;28;20052;-61
2022/05/18 18:07:38;;;;;;;9.80;5.78;;;22.90;85.40;;;;;;10542026;28;20032;-67
2022/05/18 18:12:39;;;;;;;8.32;5.13;;;22.80;86.00;;;;;;10541336;28;20403;-63
2022/05/18 18:17:40;;;;;;;9.27;4.20;;;22.80;86.00;;;;;;10541551;28;20123;-59
2022/05/18 18:22:45;;;;;;;7.47;3.65;;;22.90;86.00;;;;;;10541256;28;20040;-68
2022/05/18 18:27:46;;;;;;;7.60;4.03;;;22.90;85.90;;;;;;10540938;28;20476;-63
2022/05/18 18:32:47;;;;;;;5.25;3.60;;;22.90;86.00;;;;;;10541079;28;20044;-65
2022/05/18 18:37:50;;;;;;;4.53;3.00;;;22.90;86.00;;;;;;10540612;28;20479;-57
2022/05/18 18:42:50;;;;;;;4.13;3.10;;;22.90;86.00;;;;;;10540375;28;20032;-66
2022/05/18 18:47:51;;;;;;;8.68;5.20;;;22.90;86.10;;;;;;10540658;28;20036;-59
2022/05/18 18:58:11;;;;;;;11.85;4.70;;;22.10;86.60;;;;;;10540416;28;20618;-57
2022/05/18 19:03:12;;;;;;;8.95;4.07;;;21.90;87.20;;;;;;10539916;28;20532;-68
2022/05/18 19:08:13;;;;;;;9.45;4.45;;;22.00;87.00;;;;;;10539612;28;20035;-56
2022/05/18 19:13:16;;;;;;;7.43;3.88;;;22.10;86.80;;;;;;10539176;28;20048;-60
2022/05/18 19:18:17;;;;;;;7.70;3.53;;;22.20;86.70;;;;;;10539154;28;20040;-69
2022/05/18 19:23:30;;;;;;;3.65;2.80;;;22.20;86.60;;;;;;10538906;28;20455;-66
2022/05/18 19:28:35;;;;;;;6.00;3.30;;;22.20;86.50;;;;;;10538655;28;20441;-70
2022/05/18 19:33:37;;;;;;;3.83;2.58;;;22.20;86.50;;;;;;10538123;28;20534;-64
2022/05/18 19:38:38;;;;;;;6.65;2.97;;;22.20;86.60;;;;;;10537716;28;20036;-58
2022/05/18 19:43:44;;;;;;;5.57;2.88;;;22.30;86.70;;;;;;10537816;28;20046;-59
2022/05/18 19:48:44;;;;;;;6.38;2.90;;;22.20;86.60;;;;;;10537727;28;20036;-57
2022/05/18 19:53:46;;;;;;;4.25;2.90;;;22.20;86.60;;;;;;10537334;28;20106;-73
2022/05/18 19:58:47;;;;;;;4.10;2.75;;;22.20;86.70;;;;;;10537239;28;20036;-56
2022/05/18 20:03:48;;;;;;;4.32;2.42;;;22.20;86.80;;;;;;10536688;28;20047;-65
2022/05/18 20:08:50;;;;;;;6.13;2.90;;;22.10;86.90;;;;;;10536816;28;20080;-57
2022/05/18 20:13:51;;;;;;;4.68;2.65;;;22.10;86.90;;;;;;10537153;28;20044;-60
2022/05/18 20:18:53;;;;;;;4.82;3.05;;;22.10;87.00;;;;;;10536599;28;20119;-73
2022/05/18 20:23:54;;;;;;;8.35;3.25;;;22.10;87.10;;;;;;10536339;28;20089;-73
2022/05/18 20:28:55;;;;;;;4.70;2.60;;;22.00;87.10;;;;;;10536342;28;20374;-61
2022/05/18 20:33:56;;;;;;;4.25;2.90;;;22.00;87.20;;;;;;10536016;28;20069;-68
2022/05/18 20:38:57;;;;;;;5.63;2.80;;;22.00;87.30;;;;;;10535836;28;20132;-58
2022/05/18 20:43:57;;;;;;;4.93;2.72;;;22.00;87.20;;;;;;10536366;28;20036;-57
2022/05/18 20:49:00;;;;;;;4.90;2.65;;;21.90;87.30;;;;;;10535335;28;20492;-56
2022/05/18 20:54:01;;;;;;;6.03;3.03;;;21.90;87.30;;;;;;10535398;28;20132;-66
2022/05/18 20:59:03;;;;;;;4.60;3.20;;;21.90;87.40;;;;;;10535135;28;20125;-69
2022/05/18 21:04:04;;;;;;;4.78;2.78;;;21.80;87.30;;;;;;10535128;28;20040;-73
2022/05/18 21:09:05;;;;;;;8.23;3.65;;;21.80;87.40;;;;;;10535292;28;20119;-59
2022/05/18 21:14:09;;;;;;;5.57;3.50;;;21.80;87.40;;;;;;10536168;28;20039;-73
2022/05/18 21:19:10;;;;;;;4.45;3.10;;;21.80;87.40;;;;;;10543419;28;20115;-64
2022/05/18 21:24:11;;;;;;;6.70;3.63;;;21.70;87.40;;;;;;10543161;28;20542;-56
2022/05/18 21:29:18;;;;;;;6.72;3.40;;;21.70;87.70;;;;;;10543080;28;20054;-57
2022/05/18 21:34:19;;;;;;;6.22;3.40;;;21.70;87.90;;;;;;10543019;28;20385;-62
2022/05/18 21:39:19;;;;;;;5.60;3.67;;;21.60;87.80;;;;;;10541989;28;20032;-59
2022/05/18 21:44:23;;;;;;;5.82;3.80;;;21.60;87.90;;;;;;10541388;28;20477;-65
2022/05/18 21:49:23;;;;;;;6.65;4.00;;;21.50;87.80;;;;;;10541319;28;20480;-57
2022/05/18 21:54:24;;;;;;;8.27;4.32;;;21.50;87.90;;;;;;10540851;28;20135;-63
2022/05/18 21:59:39;;;;;;;5.78;3.85;;;21.50;87.90;;;;;;10540922;28;20127;-60
2022/05/18 22:04:42;;;;;;;4.68;3.60;;;21.50;88.00;;;;;;10540769;28;20031;-65
2022/05/18 22:09:43;;;;;;;7.82;4.50;;;21.50;88.00;;;;;;10540772;28;20082;-65
2022/05/18 22:14:43;;;;;;;5.78;3.88;;;21.40;88.00;;;;;;10540340;28;20087;-57
2022/05/18 22:19:44;;;;;;;6.00;4.13;;;21.40;88.00;;;;;;10540310;28;20063;-63
2022/05/18 22:24:46;;;;;;;5.88;3.95;;;21.40;88.10;;;;;;10539822;28;20040;-58
2022/05/18 22:30:07;;;;;;;6.43;4.05;;;21.30;88.70;;;;;;10540896;28;20060;-61
2022/05/18 22:35:09;;;;;;;6.07;3.78;;;21.30;88.20;;;;;;10540779;28;20048;-62
2022/05/18 22:40:12;;;;;;;9.30;4.65;;;21.30;88.20;;;;;;10540943;28;20028;-64
2022/05/18 22:45:19;;;;;;;8.38;4.80;;;21.20;88.30;;;;;;10540737;28;20059;-62
2022/05/18 22:50:35;;;;;;;7.50;4.78;;;21.20;88.30;;;;;;10540414;28;20500;-66
2022/05/18 22:55:36;;;;;;;6.32;4.65;;;21.20;88.30;;;;;;10540204;28;20036;-63
2022/05/18 23:00:38;;;;;;;8.75;4.50;;;21.20;88.40;;;;;;10539882;28;20036;-65
2022/05/18 23:05:46;;;;;;;5.88;4.25;;;21.10;88.30;;;;;;10539712;28;20127;-57
2022/05/18 23:10:47;;;;;;;8.98;4.90;;;21.10;88.40;;;;;;10539650;28;20035;-63
2022/05/18 23:15:51;;;;;;;8.40;4.43;;;21.10;88.40;;;;;;10539317;28;20066;-55
2022/05/18 23:20:54;;;;;;;7.38;4.57;;;21.10;88.40;;;;;;10538958;28;20054;-61
2022/05/18 23:25:55;;;;;;;8.23;4.85;;;21.10;88.50;;;;;;10539366;28;20090;-65
2022/05/18 23:30:56;;;;;;;7.70;4.70;;;21.00;88.40;;;;;;10538683;28;20063;-60
2022/05/18 23:36:03;;;;;;;7.45;4.40;;;21.00;88.50;;;;;;10538665;28;20567;-66
2022/05/18 23:41:07;;;;;;;6.87;4.83;;;21.00;88.60;;;;;;10538648;28;20059;-64
2022/05/18 23:46:17;;;;;;;8.80;5.30;;;21.00;88.50;;;;;;10538426;28;20347;-61
2022/05/18 23:51:30;;;;;;;9.38;5.05;;;21.00;88.60;;;;;;10538191;28;20389;-57
2022/05/18 23:56:56;;;;;;;7.65;4.72;;;20.90;88.60;;;;;;10537917;28;20117;-56
